createdAt,value
2022-07-30T00:07:14.611Z,11150.24219
2022-07-30T00:22:17.065Z,11304.67578
2022-07-30T00:37:19.368Z,11270.77539
2022-07-30T00:52:21.646Z,11209.56738
2022-07-30T01:07:24.106Z,9869.5791
2022-07-30T01:22:30.612Z,9102.12305
2022-07-30T01:37:33.307Z,8726.39941
2022-07-30T01:52:35.583Z,7740.47754
2022-07-30T02:07:37.922Z,1506.66223
2022-07-30T02:22:40.222Z,1248.64636
2022-07-30T02:37:44.122Z,954.84723
2022-07-30T02:52:46.832Z,645.03979
2022-07-30T03:07:49.100Z,372.89893
2022-07-30T03:22:51.446Z,160.08287
2022-07-30T03:37:53.765Z,52.73318
2022-07-30T03:52:56.089Z,10.3583
2022-07-30T04:07:58.403Z,0.94166
2022-07-30T04:23:02.207Z,0
2022-07-30T04:38:04.489Z,0
2022-07-30T04:53:06.838Z,0
2022-07-30T05:08:09.068Z,0
2022-07-30T05:23:11.379Z,0
2022-07-30T05:38:13.662Z,0
2022-07-30T05:53:15.983Z,0
2022-07-30T06:08:18.393Z,0
2022-07-30T06:23:20.698Z,0
2022-07-30T06:38:23.183Z,0
2022-07-30T06:53:25.562Z,0
2022-07-30T07:08:27.840Z,0
2022-07-30T07:23:41.668Z,0
2022-07-30T07:38:45.000Z,0
2022-07-30T07:54:05.731Z,0
2022-07-30T08:09:22.539Z,0
2022-07-30T08:24:24.727Z,0
2022-07-30T08:39:26.947Z,0
2022-07-30T08:54:29.212Z,0
2022-07-30T09:09:31.554Z,0
2022-07-30T09:24:34.492Z,0
2022-07-30T09:39:36.789Z,0
2022-07-30T09:54:39.038Z,0
2022-07-30T10:09:54.341Z,0
2022-07-30T10:24:56.579Z,0
2022-07-30T10:39:59.622Z,0
2022-07-30T10:55:01.972Z,0
2022-07-30T11:10:09.630Z,0
2022-07-30T11:25:13.066Z,0
2022-07-30T11:40:15.910Z,0
2022-07-30T11:55:28.655Z,3.76666
2022-07-30T12:10:31.003Z,26.36659
2022-07-30T12:25:33.347Z,96.04972
2022-07-30T12:40:35.671Z,228.82433
2022-07-30T12:55:38.166Z,405.85715
2022-07-30T13:10:40.458Z,994.39709
2022-07-30T13:25:42.781Z,1744.9032
2022-07-30T13:40:45.067Z,2474.69287
2022-07-30T13:55:47.421Z,3224.25732
2022-07-30T14:10:49.710Z,3648.94775
2022-07-30T14:25:52.287Z,4388.15381
2022-07-30T14:40:54.551Z,5160.31836
2022-07-30T14:55:56.909Z,5401.38428
2022-07-30T15:11:02.596Z,5244.12646
2022-07-30T15:26:08.454Z,6261.12354
2022-07-30T15:41:13.712Z,7263.99561
2022-07-30T15:56:16.394Z,8305.47559
2022-07-30T16:11:18.703Z,8573.84961
2022-07-30T16:26:20.949Z,8516.4082
2022-07-30T16:41:23.237Z,8603.04199
2022-07-30T16:56:25.556Z,8056.87646
2022-07-30T17:11:46.954Z,7822.40234
2022-07-30T17:26:54.479Z,7544.61133
2022-07-30T17:42:01.976Z,7340.27002
2022-07-30T17:57:05.487Z,7209.37891
2022-07-30T18:12:07.781Z,7247.9873
2022-07-30T18:27:10.052Z,7383.58691
2022-07-30T18:42:12.379Z,7298.83691
2022-07-30T18:57:14.820Z,7390.17822
2022-07-30T19:12:17.129Z,7461.74512
2022-07-30T19:27:19.424Z,7570.97803
2022-07-30T19:42:21.714Z,7684.91943
2022-07-30T19:57:24.049Z,7835.58545
2022-07-30T20:12:56.011Z,7865.71875
2022-07-30T20:27:59.249Z,7867.60205
2022-07-30T20:43:01.758Z,8015.44336
2022-07-30T20:58:13.891Z,8116.20117
2022-07-30T21:13:19.088Z,8038.98486
2022-07-30T21:28:27.177Z,7987.19336
2022-07-30T21:43:30.558Z,7771.55225
2022-07-30T21:58:36.071Z,7792.26904
2022-07-30T23:12:28.467Z,7866.66016
2022-07-30T23:27:32.755Z,9295.16504
2022-07-30T23:42:35.019Z,9909.12988
2022-07-30T23:57:37.428Z,10437.40332
